D/T METAR WX W/DIR W/SPE G/SPE TEMP DEWP
7/12/19 23:50 EGYD 072350Z AUTO 20022KT 9999 // BKN012/// BKN070/// 09/08 Q0998 SSW (200°) 25.3mph 9°C 8°C
7/12/19 22:50 EGYD 072250Z AUTO 21027KT 9999 // SCT013/// OVC160/// 09/07 Q1000 SSW (210°) 31.1mph 9°C 7°C
7/12/19 21:50 EGYD 072150Z AUTO 22025KT 9999 // OVC012/// 09/07 Q1002 SW (220°) 28.8mph 9°C 7°C
7/12/19 20:50 EGYD 072050Z AUTO 21017KT 9999 // BKN010/// 09/07 Q1004 SSW (210°) 19.6mph 9°C 7°C
7/12/19 19:50 EGYD 071950Z AUTO 21013KT 9999 // SCT011/// 08/07 Q1005 SSW (210°) 15.0mph 8°C 7°C
7/12/19 18:50 EGYD 071850Z AUTO 21017KT 9999 // OVC015/// 09/07 Q1006 SSW (210°) 19.6mph 9°C 7°C
7/12/19 17:50 EGYD 071750Z AUTO 22020KT 9999 // BKN020/// SCT050/// 09/07 Q1007 SW (220°) 23.0mph 9°C 7°C
7/12/19 16:50 EGYD 071650Z AUTO 21015KT 9999 // FEW025/// 08/06 Q1008 SSW (210°) 17.3mph 8°C 6°C
7/12/19 15:50 EGYD 071550Z AUTO 22016KT 9999 // SCT060/// 08/05 Q1008 SW (220°) 18.4mph 8°C 5°C
7/12/19 14:50 EGYD 071450Z 22010KT 9999 SCT023 SCT070 BKN250 09/06 Q1009 TEMPO FEW023 RMK WHT TEMPO BLU SW (220°) 11.5mph 9°C 6°C
7/12/19 14:21 EGYD 071421Z 24015KT 9999 BKN023 BKN250 09/06 Q1009 TEMPO FEW022 RMK WHT TEMPO BLU WSW (240°) 17.3mph 9°C 6°C
7/12/19 13:50 EGYD 071350Z 24016KT 9999 SCT024 BKN250 10/06 Q1009 TEMPO FEW024 RMK WHT TEMPO BLU WSW (240°) 18.4mph 10°C 6°C
7/12/19 13:20 EGYD 071320Z 23015KT 9999 BKN025 BKN250 09/06 Q1009 TEMPO SCT022 RMK BLU TEMPO WHT SW (230°) 17.3mph 9°C 6°C
7/12/19 12:50 EGYD 071250Z 24015KT 9999 FEW015 SCT035 BKN250 09/06 Q1010 NOSIG RMK BLU BLU WSW (240°) 17.3mph 9°C 6°C
7/12/19 12:20 EGYD 071220Z 25014KT 9999 FEW015 BKN250 09/06 Q1010 NOSIG RMK BLU BLU WSW (250°) 16.1mph 9°C 6°C
7/12/19 11:56 EGYD 071156Z 25012KT 9999 FEW015 BKN250 09/06 Q1010 NOSIG RMK BLU BLU WSW (250°) 13.8mph 9°C 6°C
7/12/19 11:20 EGYD 071120Z 25012KT 9999 FEW035 BKN250 09/06 Q1011 NOSIG RMK BLU BLU WSW (250°) 13.8mph 9°C 6°C
7/12/19 10:20 EGYD 071020Z 23007KT 9999 FEW035 BKN250 08/06 Q1011 NOSIG RMK BLU BLU SW (230°) 8.1mph 8°C 6°C
7/12/19 09:50 EGYD 070950Z 25011KT 9999 FEW035 BKN250 08/06 Q1011 NOSIG RMK BLU BLU WSW (250°) 12.7mph 8°C 6°C
7/12/19 09:20 EGYD 070920Z 24011KT 9999 SCT035 BKN250 07/06 Q1011 TEMPO SCT020 RMK BLU TEMPO WHT WSW (240°) 12.7mph 7°C 6°C
7/12/19 08:50 EGYD 070850Z 25009KT 9999 FEW020 BKN035 07/06 Q1011 TEMPO SCT020 RMK BLU TEMPO WHT WSW (250°) 10.4mph 7°C 6°C
7/12/19 08:21 EGYD 070821Z 24011KT 9999 FEW020 SCT038 07/05 Q1010 TEMPO SCT020 RMK BLU TEMPO WHT WSW (240°) 12.7mph 7°C 5°C
7/12/19 07:50 EGYD 070750Z 25011KT 9999 SCT020 SCT040 07/05 Q1010 TEMPO FEW020 RMK WHT TEMPO BLU WSW (250°) 12.7mph 7°C 5°C
7/12/19 06:50 EGYD 070650Z AUTO 24013KT 9999 // SCT020/// BKN190/// 07/05 Q1010 WSW (240°) 15.0mph 7°C 5°C
7/12/19 05:50 EGYD 070550Z AUTO 25015KT 9999 // BKN037/// 08/06 Q1009 WSW (250°) 17.3mph 8°C 6°C
7/12/19 04:50 EGYD 070450Z AUTO 25013KT 9999 // BKN036/// SCT200/// 08/06 Q1009 WSW (250°) 15.0mph 8°C 6°C
7/12/19 03:50 EGYD 070350Z AUTO 26012KT 9999 // SCT022/// BKN033/// BKN038/// 08/06 Q1008 W (260°) 13.8mph 8°C 6°C
7/12/19 02:50 EGYD 070250Z AUTO 26011KT 9999 // SCT021/// SCT027/// BKN034/// 08/06 Q1008 W (260°) 12.7mph 8°C 6°C
7/12/19 01:50 EGYD 070150Z AUTO 25015KT 9999 // FEW019/// SCT026/// BKN030/// 08/06 Q1007 WSW (250°) 17.3mph 8°C 6°C
7/12/19 00:50 EGYD 070050Z AUTO 25011KT 9999 // BKN029/// SCT039/// 08/06 Q1006 WSW (250°) 12.7mph 8°C 6°C
6/12/19 23:50 EGYD 062350Z AUTO 26016KT 9999 // FEW019/// SCT034/// 08/06 Q1005 W (260°) 18.4mph 8°C 6°C
6/12/19 22:50 EGYD 062250Z AUTO 26016KT 9999 // FEW023/// BKN037/// 09/06 Q1005 W (260°) 18.4mph 9°C 6°C
6/12/19 21:50 EGYD 062150Z AUTO 26014KT 9999 // FEW022/// SCT040/// 08/06 Q1004 W (260°) 16.1mph 8°C 6°C
6/12/19 20:50 EGYD 062050Z AUTO 27014KT 9999 // BKN031/// 09/06 Q1003 W (270°) 16.1mph 9°C 6°C
6/12/19 19:50 EGYD 061950Z AUTO 27016KT 9999 // NCD 08/07 Q1002 W (270°) 18.4mph 8°C 7°C
6/12/19 18:50 EGYD 061850Z AUTO 27013KT 9999 // BKN019/// SCT027/// 09/07 Q1001 W (270°) 15.0mph 9°C 7°C
6/12/19 17:50 EGYD 061750Z AUTO 27014KT 9999 // BKN039/// 09/07 Q1000 W (270°) 16.1mph 9°C 7°C
6/12/19 16:50 EGYD 061650Z 27012KT 9999 -SHRA SCT025 BKN050 09/07 Q0999 RMK BLU -SHRA W (270°) 13.8mph 9°C 7°C
6/12/19 15:50 EGYD 061550Z 26012KT 9999 -SHRA SCT014CB BKN050 09/07 Q0997 RMK GRN -SHRA W (260°) 13.8mph 9°C 7°C
6/12/19 15:20 EGYD 061520Z 26019KT 9999 -SHRA SCT014CB BKN040 09/08 Q0997 TEMPO 6000 SHRA RMK GRN TEMPO GRN -SHRA W (260°) 21.9mph 9°C 8°C
6/12/19 15:01 EGYD 061501Z 26016KT 9999 4000SW -SHRA SCT014CB SCT018 BKN035 11/08 Q0997 TEMPO 9999 RMK GRN TEMPO GRN -SHRA W (260°) 18.4mph 11°C 8°C
6/12/19 14:21 EGYD 061421Z 26019KT 9999 FEW024 SCT030 12/08 Q0997 TEMPO 6000 SHRA SCT014CB RMK BLU TEMPO GRN W (260°) 21.9mph 12°C 8°C
6/12/19 13:50 EGYD 061350Z 25020KT 9999 SCT022 SCT035 12/09 Q0997 TEMPO 6000 SHRA SCT014CB RMK BLU TEMPO GRN WSW (250°) 23.0mph 12°C 9°C
6/12/19 13:21 EGYD 061321Z 25022KT 9999 FEW015 SCT035 12/09 Q0997 TEMPO 6000 SHRA SCT014CB RMK BLU TEMPO GRN WSW (250°) 25.3mph 12°C 9°C
6/12/19 12:50 EGYD 061250Z 24022KT 9999 FEW007 SCT050 12/10 Q0997 TEMPO 6000 SHRA SCT015 RMK BLU TEMPO WHT WSW (240°) 25.3mph 12°C 10°C
6/12/19 12:20 EGYD 061220Z 23020KT 9999 -SHRA SCT012 BKN030 12/10 Q0997 TEMPO 6000 SHRA RMK GRN TEMPO GRN -SHRA SW (230°) 23.0mph 12°C 10°C
6/12/19 11:50 EGYD 061150Z 24021G31KT 9999 SCT013 SCT050 12/10 Q0998 TEMPO 6000 SHRA RMK GRN TEMPO GRN WSW (240°) 24.2mph 35.7mph 12°C 10°C
6/12/19 11:21 EGYD 061121Z 24019KT 9999 SCT015 BKN040 12/10 Q0999 BECMG FEW015 BKN025 RMK WHT BECMG BLU WSW (240°) 21.9mph 12°C 10°C